Time;durP1;ratioP1;P1;durP2;ratioP2;P2;SDS_P1;SDS_P2;PMS_P1;PMS_P2;Temp;Humidity;BMP_temperature;BMP_pressure;BME280_temperature;BME280_humidity;BME280_pressure;Samples;Min_cycle;Max_cycle;Signal;HPM_P1;HPM_P2
2021/12/12 00:01:38;;;;;;;;;;;2.70;99.90;;;;;;5034736;28;19979;-50
2021/12/12 00:04:11;;;;;;;;;;;2.70;99.90;;;;;;5043282;28;19970;-50
2021/12/12 00:06:41;;;;;;;;;;;2.70;99.90;;;;;;5054577;28;19955;-50
2021/12/12 00:09:10;;;;;;;;;;;2.60;99.90;;;;;;5054085;28;20344;-49
2021/12/12 00:11:37;;;;;;;;;;;2.60;99.90;;;;;;5054461;28;19925;-50
2021/12/12 00:14:08;;;;;;;;;;;2.60;99.90;;;;;;5054459;28;19932;-50
2021/12/12 00:16:35;;;;;;;;;;;2.50;99.90;;;;;;5054565;28;19932;-49
2021/12/12 00:19:02;;;;;;;;;;;2.60;99.90;;;;;;5054103;28;19928;-50
2021/12/12 00:21:30;;;;;;;;;;;2.70;99.90;;;;;;5054105;28;19925;-50
2021/12/12 00:23:58;;;;;;;;;;;2.60;99.90;;;;;;5053894;28;19936;-50
2021/12/12 00:26:25;;;;;;;;;;;2.60;99.90;;;;;;5054456;28;19928;-50
2021/12/12 00:28:52;;;;;;;;;;;2.70;99.90;;;;;;5044454;28;19972;-49
2021/12/12 00:31:19;;;;;;;;;;;2.80;99.90;;;;;;5034263;28;19929;-50
2021/12/12 00:33:48;;;;;;;;;;;2.90;99.90;;;;;;5034055;28;20378;-50
2021/12/12 00:36:17;;;;;;;;;;;2.90;99.90;;;;;;5053053;28;20157;-50
2021/12/12 00:38:44;;;;;;;;;;;3.00;99.90;;;;;;5054470;28;19975;-50
2021/12/12 00:41:13;;;;;;;;;;;3.00;99.90;;;;;;5054197;28;19971;-49
2021/12/12 00:43:41;;;;;;;;;;;3.00;99.90;;;;;;5054947;28;19970;-50
2021/12/12 00:46:09;;;;;;;;;;;2.90;99.90;;;;;;5054261;28;19925;-50
2021/12/12 00:48:37;;;;;;;;;;;3.00;99.90;;;;;;5049300;28;19978;-50
2021/12/12 00:51:05;;;;;;;;;;;3.00;99.90;;;;;;5053043;28;19925;-49
2021/12/12 00:53:32;;;;;;;;;;;3.10;99.90;;;;;;5053622;28;19971;-50
2021/12/12 00:55:59;;;;;;;;;;;3.10;99.90;;;;;;5053641;28;19978;-49
2021/12/12 00:58:27;;;;;;;;;;;2.90;99.90;;;;;;5053840;28;19929;-50
2021/12/12 01:00:59;;;;;;;;;;;2.90;99.90;;;;;;5053121;28;19929;-49
2021/12/12 01:03:27;;;;;;;;;;;2.90;99.90;;;;;;5053800;28;19929;-50
2021/12/12 01:05:55;;;;;;;;;;;2.90;99.90;;;;;;5053301;28;19978;-50
2021/12/12 01:08:22;;;;;;;;;;;3.00;99.90;;;;;;5053338;28;19979;-49
2021/12/12 01:10:53;;;;;;;;;;;3.10;99.90;;;;;;5053379;28;20283;-49
2021/12/12 01:13:20;;;;;;;;;;;2.90;99.90;;;;;;5053086;28;19971;-50
2021/12/12 01:21:56;;;;;;;;;;;3.00;99.90;;;;;;5052641;28;20348;-50
2021/12/12 01:24:25;;;;;;;;;;;3.10;99.90;;;;;;5052951;28;19925;-49
2021/12/12 01:26:53;;;;;;;;;;;3.10;99.90;;;;;;5053314;28;19925;-50
2021/12/12 01:29:20;;;;;;;;;;;3.10;99.90;;;;;;5053366;28;19971;-49
2021/12/12 01:31:48;;;;;;;;;;;3.10;99.90;;;;;;5053236;28;19924;-50
2021/12/12 01:34:16;;;;;;;;;;;3.10;99.90;;;;;;5052990;28;20318;-50
2021/12/12 01:36:53;;;;;;;;;;;3.10;99.90;;;;;;5053116;28;19928;-50
2021/12/12 01:39:22;;;;;;;;;;;3.20;99.90;;;;;;5049452;28;20302;-49
2021/12/12 01:41:52;;;;;;;;;;;3.10;99.90;;;;;;5052979;28;20598;-50
2021/12/12 01:44:22;;;;;;;;;;;3.10;99.90;;;;;;5052705;28;19929;-50
2021/12/12 01:46:51;;;;;;;;;;;3.10;99.90;;;;;;5052805;28;19925;-49
2021/12/12 01:49:19;;;;;;;;;;;3.10;99.90;;;;;;5052814;28;20294;-50
2021/12/12 01:51:47;;;;;;;;;;;3.00;99.90;;;;;;5052637;28;20386;-49
2021/12/12 01:54:15;;;;;;;;;;;3.10;99.90;;;;;;5052438;28;19925;-49
2021/12/12 01:56:49;;;;;;;;;;;3.10;99.90;;;;;;5052947;28;19939;-49
2021/12/12 01:59:17;;;;;;;;;;;3.20;99.90;;;;;;5052693;28;19991;-50
2021/12/12 02:01:45;;;;;;;;;;;3.20;99.90;;;;;;5052735;28;19925;-49
2021/12/12 02:04:15;;;;;;;;;;;3.20;99.90;;;;;;5052644;28;19978;-49
2021/12/12 02:06:43;;;;;;;;;;;3.20;99.90;;;;;;5052520;28;19972;-50
2021/12/12 02:09:11;;;;;;;;;;;3.20;99.90;;;;;;5053123;28;19929;-50
2021/12/12 02:11:38;;;;;;;;;;;3.20;99.90;;;;;;5051975;28;20015;-49
2021/12/12 02:14:11;;;;;;;;;;;3.20;99.90;;;;;;5051957;28;19929;-50
2021/12/12 02:16:39;;;;;;;;;;;3.10;99.90;;;;;;5052403;28;19925;-50
2021/12/12 02:19:07;;;;;;;;;;;3.20;99.90;;;;;;5052323;28;19971;-50
2021/12/12 02:21:39;;;;;;;;;;;3.20;99.90;;;;;;5051760;28;19925;-49
2021/12/12 02:35:21;;;;;;;;;;;3.00;99.90;;;;;;5051850;28;19964;-49
2021/12/12 02:37:49;;;;;;;;;;;3.00;99.90;;;;;;5032379;28;20353;-49
2021/12/12 02:40:19;;;;;;;;;;;3.00;99.90;;;;;;5032223;28;19925;-50
2021/12/12 02:42:46;;;;;;;;;;;3.00;99.90;;;;;;5031746;28;19925;-49
2021/12/12 02:45:15;;;;;;;;;;;3.00;99.90;;;;;;5050396;28;19924;-50
2021/12/12 02:47:43;;;;;;;;;;;3.00;99.90;;;;;;5051925;28;20301;-50
2021/12/12 02:50:13;;;;;;;;;;;3.00;99.90;;;;;;5051725;28;20002;-50
2021/12/12 02:52:41;;;;;;;;;;;3.00;99.90;;;;;;5051712;28;19924;-49
2021/12/12 02:55:09;;;;;;;;;;;3.00;99.90;;;;;;5051751;28;19924;-50
2021/12/12 02:57:38;;;;;;;;;;;3.00;99.90;;;;;;5051705;28;20348;-50
2021/12/12 03:00:06;;;;;;;;;;;3.00;99.90;;;;;;5051935;28;19979;-50
2021/12/12 03:02:39;;;;;;;;;;;3.00;99.90;;;;;;5051934;28;20349;-50
2021/12/12 03:05:07;;;;;;;;;;;3.00;99.90;;;;;;5051492;28;19963;-49
2021/12/12 03:07:34;;;;;;;;;;;3.00;99.90;;;;;;5051803;28;20333;-49
2021/12/12 03:10:01;;;;;;;;;;;3.00;99.90;;;;;;5051443;28;19932;-50
2021/12/12 03:12:33;;;;;;;;;;;3.00;99.90;;;;;;5031896;28;19971;-50
2021/12/12 03:15:03;;;;;;;;;;;3.00;99.90;;;;;;5032059;28;19925;-49
2021/12/12 03:17:30;;;;;;;;;;;2.80;99.90;;;;;;5042134;28;19970;-50
2021/12/12 03:20:01;;;;;;;;;;;2.80;99.90;;;;;;5051505;28;19971;-50
2021/12/12 03:22:28;;;;;;;;;;;2.80;99.90;;;;;;5031527;28;19925;-50
2021/12/12 03:24:55;;;;;;;;;;;2.80;99.90;;;;;;5031932;28;20276;-50
2021/12/12 03:27:23;;;;;;;;;;;2.90;99.90;;;;;;5031629;28;20353;-49
2021/12/12 03:29:50;;;;;;;;;;;2.90;99.90;;;;;;5031898;28;19929;-50
2021/12/12 03:32:21;;;;;;;;;;;2.90;99.90;;;;;;5031531;28;20002;-50
2021/12/12 03:34:50;;;;;;;;;;;3.00;99.90;;;;;;5050734;28;19979;-49
2021/12/12 03:37:18;;;;;;;;;;;2.90;99.90;;;;;;5051554;28;19947;-50
2021/12/12 03:39:46;;;;;;;;;;;2.90;99.90;;;;;;5051792;28;19970;-49
2021/12/12 03:42:17;;;;;;;;;;;2.80;99.90;;;;;;5051667;28;19925;-50
2021/12/12 03:44:44;;;;;;;;;;;2.80;99.90;;;;;;5055054;28;19929;-50
2021/12/12 03:47:13;;;;;;;;;;;2.80;99.90;;;;;;5054654;28;20398;-49
2021/12/12 03:49:41;;;;;;;;;;;2.80;99.90;;;;;;5054269;28;19971;-49
2021/12/12 03:52:09;;;;;;;;;;;2.80;99.90;;;;;;5054845;28;19970;-50
2021/12/12 03:54:36;;;;;;;;;;;2.80;99.90;;;;;;5054987;28;19974;-49
2021/12/12 03:57:04;;;;;;;;;;;2.80;99.90;;;;;;5054982;28;19928;-50
2021/12/12 03:59:31;;;;;;;;;;;2.80;99.90;;;;;;5054978;28;19987;-50
2021/12/12 04:01:58;;;;;;;;;;;2.80;99.90;;;;;;5054378;28;19970;-50
2021/12/12 04:04:27;;;;;;;;;;;2.80;99.90;;;;;;5053139;28;19925;-50
2021/12/12 04:06:56;;;;;;;;;;;2.70;99.90;;;;;;5054397;28;19925;-49
2021/12/12 04:09:24;;;;;;;;;;;2.70;99.90;;;;;;5054641;28;19929;-50
2021/12/12 04:11:53;;;;;;;;;;;2.70;99.90;;;;;;5054474;28;19979;-49
2021/12/12 04:14:20;;;;;;;;;;;2.70;99.90;;;;;;5054523;28;19978;-49
2021/12/12 04:16:49;;;;;;;;;;;2.70;99.90;;;;;;5054217;28;19955;-49
2021/12/12 04:19:16;;;;;;;;;;;2.70;99.90;;;;;;5054154;28;19975;-49
2021/12/12 04:21:43;;;;;;;;;;;2.60;99.90;;;;;;5053932;28;19971;-50
2021/12/12 04:24:19;;;;;;;;;;;2.60;99.90;;;;;;5054515;28;19928;-50
2021/12/12 04:26:46;;;;;;;;;;;2.60;99.90;;;;;;5054518;28;20323;-49
2021/12/12 04:29:13;;;;;;;;;;;2.50;99.90;;;;;;5054429;28;19925;-49
2021/12/12 04:31:41;;;;;;;;;;;2.40;99.90;;;;;;5054528;28;19928;-50
2021/12/12 04:34:08;;;;;;;;;;;2.30;99.90;;;;;;5053234;28;19970;-49
2021/12/12 04:36:36;;;;;;;;;;;2.30;99.90;;;;;;5053261;28;19971;-50
2021/12/12 04:39:06;;;;;;;;;;;2.20;99.90;;;;;;5052880;28;19928;-49
2021/12/12 04:41:35;;;;;;;;;;;2.10;99.90;;;;;;5053911;28;19925;-49
2021/12/12 04:44:02;;;;;;;;;;;2.10;99.90;;;;;;5053887;28;19978;-50
2021/12/12 04:49:54;;;;;;;;;;;2.20;99.90;;;;;;5054374;28;20019;-49
2021/12/12 04:52:06;;;;;;;;;;;2.50;99.90;;;;;;5053819;28;20293;-49
2021/12/12 04:54:36;;;;;;;;;;;2.40;99.90;;;;;;5053791;28;19929;-50
2021/12/12 04:57:06;;;;;;;;;;;2.40;99.90;;;;;;5039394;28;19929;-49
2021/12/12 04:59:35;;;;;;;;;;;2.30;99.90;;;;;;5034294;28;19926;-49
2021/12/12 05:02:04;;;;;;;;;;;2.30;99.90;;;;;;5034075;28;19926;-50
2021/12/12 05:04:33;;;;;;;;;;;2.20;99.90;;;;;;5049906;28;20314;-49
2021/12/12 05:07:03;;;;;;;;;;;2.20;99.90;;;;;;5053913;28;19978;-49
2021/12/12 05:09:32;;;;;;;;;;;2.30;99.90;;;;;;5053885;28;20345;-50
2021/12/12 05:12:01;;;;;;;;;;;2.30;99.90;;;;;;5053602;28;19971;-49
2021/12/12 05:14:31;;;;;;;;;;;2.30;99.90;;;;;;5053539;28;20439;-50
2021/12/12 05:17:02;;;;;;;;;;;2.40;99.90;;;;;;5052450;28;19979;-50
2021/12/12 05:19:30;;;;;;;;;;;2.40;99.90;;;;;;5053398;28;19924;-49
2021/12/12 05:21:59;;;;;;;;;;;2.50;99.90;;;;;;5053487;28;19925;-49
2021/12/12 05:24:26;;;;;;;;;;;2.40;99.90;;;;;;5053043;28;19933;-56
2021/12/12 05:26:56;;;;;;;;;;;2.40;99.90;;;;;;5053256;28;19925;-50
2021/12/12 05:29:24;;;;;;;;;;;2.40;99.90;;;;;;5053474;28;19939;-50
2021/12/12 05:31:54;;;;;;;;;;;2.20;99.90;;;;;;5052136;28;19935;-49
2021/12/12 05:34:21;;;;;;;;;;;2.10;99.90;;;;;;5042060;28;19924;-51
2021/12/12 05:36:48;;;;;;;;;;;2.10;99.90;;;;;;5053298;28;19925;-51
2021/12/12 05:39:16;;;;;;;;;;;2.10;99.90;;;;;;5053085;28;19996;-51
2021/12/12 05:41:43;;;;;;;;;;;2.10;99.90;;;;;;5052767;28;20436;-51
2021/12/12 05:44:10;;;;;;;;;;;2.20;99.90;;;;;;5052996;28;20295;-53
2021/12/12 05:46:37;;;;;;;;;;;2.00;99.90;;;;;;5052082;28;19925;-51
2021/12/12 05:49:06;;;;;;;;;;;1.80;99.90;;;;;;5053142;28;19929;-51
2021/12/12 05:51:33;;;;;;;;;;;1.80;99.90;;;;;;5053030;28;19931;-51
2021/12/12 05:54:01;;;;;;;;;;;1.80;99.90;;;;;;5052417;28;19952;-51
2021/12/12 05:56:31;;;;;;;;;;;1.80;99.90;;;;;;5052984;28;19929;-50
2021/12/12 05:58:58;;;;;;;;;;;1.90;99.90;;;;;;5053371;28;19962;-51
2021/12/12 06:01:25;;;;;;;;;;;2.00;99.90;;;;;;5052820;28;20275;-51
2021/12/12 06:03:52;;;;;;;;;;;1.90;99.90;;;;;;5053539;28;19924;-51
2021/12/12 06:06:23;;;;;;;;;;;1.90;99.90;;;;;;5052974;28;19978;-51
2021/12/12 06:08:50;;;;;;;;;;;2.00;99.90;;;;;;5053354;28;20352;-51
2021/12/12 06:11:20;;;;;;;;;;;2.00;99.90;;;;;;5052520;28;20342;-51
2021/12/12 06:13:47;;;;;;;;;;;2.10;99.90;;;;;;5052093;28;19924;-51
2021/12/12 06:16:18;;;;;;;;;;;2.00;99.90;;;;;;5040132;28;19933;-51
2021/12/12 06:18:46;;;;;;;;;;;2.00;99.90;;;;;;5033535;28;19925;-51
2021/12/12 06:21:13;;;;;;;;;;;1.80;99.90;;;;;;5045177;28;20344;-52
2021/12/12 06:23:41;;;;;;;;;;;1.70;99.90;;;;;;5052801;28;19940;-51
2021/12/12 06:26:08;;;;;;;;;;;1.60;99.90;;;;;;5052287;28;19928;-51
2021/12/12 06:28:38;;;;;;;;;;;1.40;99.90;;;;;;5053028;28;19986;-52
2021/12/12 06:31:06;;;;;;;;;;;1.40;99.90;;;;;;5052802;28;19925;-52
2021/12/12 06:33:33;;;;;;;;;;;1.40;99.90;;;;;;5040415;28;19924;-52
2021/12/12 06:36:01;;;;;;;;;;;1.30;99.90;;;;;;5034624;28;19925;-52
2021/12/12 06:38:27;;;;;;;;;;;1.50;99.90;;;;;;5032706;28;19987;-52
2021/12/12 06:40:56;;;;;;;;;;;1.60;99.90;;;;;;5038000;28;19971;-51
2021/12/12 06:43:23;;;;;;;;;;;1.60;99.90;;;;;;5048049;28;20002;-51
2021/12/12 06:45:50;;;;;;;;;;;1.50;99.90;;;;;;5052676;28;19947;-50
2021/12/12 06:48:17;;;;;;;;;;;1.30;99.90;;;;;;5052413;28;19929;-52
2021/12/12 06:50:45;;;;;;;;;;;1.20;99.90;;;;;;5053010;28;19925;-51
2021/12/12 06:53:13;;;;;;;;;;;1.10;99.90;;;;;;5052071;28;20348;-52
2021/12/12 06:55:44;;;;;;;;;;;1.00;99.90;;;;;;5049834;28;20394;-52
2021/12/12 06:58:13;;;;;;;;;;;1.10;99.90;;;;;;5038859;28;19929;-51
2021/12/12 07:00:41;;;;;;;;;;;1.20;99.90;;;;;;5044675;28;20433;-51
2021/12/12 07:03:08;;;;;;;;;;;1.20;99.90;;;;;;5051471;28;19929;-52
2021/12/12 07:05:35;;;;;;;;;;;1.30;99.90;;;;;;5051723;28;19971;-52
2021/12/12 07:08:03;;;;;;;;;;;1.20;99.90;;;;;;5051410;28;20487;-51
2021/12/12 07:10:31;;;;;;;;;;;1.40;99.90;;;;;;5051831;28;19932;-50
2021/12/12 07:12:58;;;;;;;;;;;1.40;99.90;;;;;;5051432;28;20013;-51
2021/12/12 07:15:27;;;;;;;;;;;1.40;99.90;;;;;;5051703;28;20394;-52
2021/12/12 07:17:55;;;;;;;;;;;1.30;99.90;;;;;;5052588;28;19925;-50
2021/12/12 07:20:22;;;;;;;;;;;1.20;99.90;;;;;;5050976;28;19929;-51
2021/12/12 07:22:49;;;;;;;;;;;1.50;99.90;;;;;;5054502;28;19925;-50
2021/12/12 07:25:16;;;;;;;;;;;1.70;99.90;;;;;;5054048;28;19924;-50
2021/12/12 07:27:43;;;;;;;;;;;1.60;99.90;;;;;;5055273;28;19970;-50
2021/12/12 07:30:10;;;;;;;;;;;1.70;99.90;;;;;;5051292;28;20011;-51
2021/12/12 07:32:39;;;;;;;;;;;1.70;99.90;;;;;;5045406;28;19967;-51
2021/12/12 07:35:07;;;;;;;;;;;1.70;99.90;;;;;;5050159;28;19933;-51
2021/12/12 07:37:35;;;;;;;;;;;1.50;99.90;;;;;;5051439;28;21209;-51
2021/12/12 07:40:04;;;;;;;;;;;1.50;99.90;;;;;;5052844;28;19932;-52
2021/12/12 07:42:31;;;;;;;;;;;1.50;99.90;;;;;;5054205;28;19951;-52
2021/12/12 07:44:58;;;;;;;;;;;1.60;99.90;;;;;;5050583;28;20390;-50
2021/12/12 07:47:25;;;;;;;;;;;1.50;99.90;;;;;;5054600;28;19929;-53
2021/12/12 07:49:54;;;;;;;;;;;1.50;99.90;;;;;;5055159;28;19986;-51
2021/12/12 07:52:24;;;;;;;;;;;1.50;99.90;;;;;;5054043;28;20340;-52
2021/12/12 07:54:51;;;;;;;;;;;1.80;99.90;;;;;;5053457;28;19932;-50
2021/12/12 07:57:19;;;;;;;;;;;1.90;99.90;;;;;;5054093;28;19929;-52
2021/12/12 07:59:46;;;;;;;;;;;2.00;99.90;;;;;;5054522;28;19955;-50
2021/12/12 08:02:14;;;;;;;;;;;2.00;99.90;;;;;;5053993;28;20448;-51
2021/12/12 08:04:41;;;;;;;;;;;2.20;99.90;;;;;;5053632;28;19933;-52
2021/12/12 08:07:10;;;;;;;;;;;2.10;99.90;;;;;;5054182;28;20342;-51
2021/12/12 08:09:42;;;;;;;;;;;2.00;99.90;;;;;;5054349;28;20439;-52
2021/12/12 08:12:10;;;;;;;;;;;2.10;99.90;;;;;;5053930;28;19928;-51
2021/12/12 08:14:37;;;;;;;;;;;2.20;99.90;;;;;;5048099;28;19951;-50
2021/12/12 08:17:06;;;;;;;;;;;2.20;99.90;;;;;;5047831;28;19932;-51
2021/12/12 08:19:33;;;;;;;;;;;2.50;99.90;;;;;;5054228;28;19925;-52
2021/12/12 08:22:01;;;;;;;;;;;2.70;99.90;;;;;;5054018;28;19978;-52
2021/12/12 08:24:31;;;;;;;;;;;3.00;99.90;;;;;;5053825;28;19925;-50
2021/12/12 08:26:58;;;;;;;;;;;2.90;99.90;;;;;;5049255;28;19928;-52
2021/12/12 08:29:26;;;;;;;;;;;3.00;99.90;;;;;;5053427;28;20348;-51
2021/12/12 08:31:54;;;;;;;;;;;3.00;99.90;;;;;;5053831;28;20011;-51
2021/12/12 08:34:21;;;;;;;;;;;3.10;99.90;;;;;;5052821;28;19931;-51
2021/12/12 08:36:50;;;;;;;;;;;3.40;99.90;;;;;;5053241;28;19928;-51
2021/12/12 08:39:18;;;;;;;;;;;3.70;99.90;;;;;;5053753;28;19925;-51
2021/12/12 08:41:48;;;;;;;;;;;3.80;99.90;;;;;;5053605;28;19929;-51
2021/12/12 08:44:15;;;;;;;;;;;3.80;99.90;;;;;;5052846;28;19931;-50
2021/12/12 08:46:46;;;;;;;;;;;3.70;99.90;;;;;;5053893;28;19929;-52
2021/12/12 08:49:14;;;;;;;;;;;3.90;99.90;;;;;;5053575;28;19925;-52
2021/12/12 08:51:46;;;;;;;;;;;3.90;99.90;;;;;;5053322;28;19924;-52
2021/12/12 08:54:15;;;;;;;;;;;3.90;99.90;;;;;;5052684;28;20046;-51
2021/12/12 08:56:46;;;;;;;;;;;4.10;99.90;;;;;;5053277;28;19978;-52
2021/12/12 08:59:16;;;;;;;;;;;4.30;99.90;;;;;;5053095;28;19925;-51
2021/12/12 09:01:43;;;;;;;;;;;4.30;99.90;;;;;;5053279;28;19971;-52
2021/12/12 09:04:11;;;;;;;;;;;4.40;99.90;;;;;;5052353;28;19937;-53
2021/12/12 09:06:40;;;;;;;;;;;4.60;99.90;;;;;;5054480;28;19928;-52
2021/12/12 09:09:09;;;;;;;;;;;4.70;99.90;;;;;;5043170;28;19925;-51
2021/12/12 09:11:38;;;;;;;;;;;4.50;99.90;;;;;;5050535;28;19932;-54
2021/12/12 09:14:09;;;;;;;;;;;4.70;99.90;;;;;;5046047;28;19948;-53
2021/12/12 09:16:40;;;;;;;;;;;4.80;99.90;;;;;;5053011;28;19928;-52
2021/12/12 09:19:09;;;;;;;;;;;4.80;99.90;;;;;;5040989;28;20049;-52
2021/12/12 09:21:48;;;;;;;;;;;4.80;99.90;;;;;;5036398;28;19928;-52
2021/12/12 09:24:16;;;;;;;;;;;4.80;99.90;;;;;;5052805;28;20008;-51
2021/12/12 09:26:45;;;;;;;;;;;4.80;99.90;;;;;;5052918;28;20348;-52
2021/12/12 09:29:17;;;;;;;;;;;4.80;99.90;;;;;;5048472;28;20340;-52
2021/12/12 09:31:52;;;;;;;;;;;4.60;99.90;;;;;;5048218;28;20348;-51
2021/12/12 09:34:24;;;;;;;;;;;4.80;99.90;;;;;;5052269;28;19925;-51
2021/12/12 09:36:53;;;;;;;;;;;4.60;99.90;;;;;;5051005;28;19928;-52
2021/12/12 09:39:25;;;;;;;;;;;4.60;99.90;;;;;;5046640;28;20305;-52
2021/12/12 09:42:00;;;;;;;;;;;4.80;99.90;;;;;;5051496;28;19929;-52
2021/12/12 09:44:36;;;;;;;;;;;4.80;99.90;;;;;;5051685;28;20023;-51
2021/12/12 09:47:26;;;;;;;;;;;4.90;99.90;;;;;;5052246;28;19925;-53
2021/12/12 09:53:12;;;;;;;;;;;4.90;99.90;;;;;;5052243;28;19928;-51
2021/12/12 09:55:48;;;;;;;;;;;4.90;99.90;;;;;;5052287;28;20002;-52
2021/12/12 09:58:19;;;;;;;;;;;5.00;99.90;;;;;;5051923;28;19987;-52
2021/12/12 10:00:50;;;;;;;;;;;4.90;99.90;;;;;;5052479;28;19932;-51
2021/12/12 10:03:22;;;;;;;;;;;5.00;99.90;;;;;;5052437;28;19925;-52
2021/12/12 10:06:00;;;;;;;;;;;5.00;99.90;;;;;;5050652;28;19929;-52
2021/12/12 10:08:37;;;;;;;;;;;5.10;99.90;;;;;;5048162;28;19975;-53
2021/12/12 10:11:06;;;;;;;;;;;5.30;99.90;;;;;;5051754;28;19932;-51
2021/12/12 10:13:39;;;;;;;;;;;5.70;99.90;;;;;;5051767;28;19936;-52
2021/12/12 10:16:08;;;;;;;;;;;6.00;99.90;;;;;;5051905;28;19926;-52
2021/12/12 10:18:42;;;;;;;;;;;6.00;99.90;;;;;;5051725;28;19925;-51
2021/12/12 10:21:10;;;;;;;;;;;5.90;99.90;;;;;;5051679;28;19978;-52
2021/12/12 10:23:45;;;;;;;;;;;6.00;99.90;;;;;;5039571;28;20398;-51
2021/12/12 10:26:15;;;;;;;;;;;6.10;99.90;;;;;;5032021;28;19979;-51
2021/12/12 10:28:44;;;;;;;;;;;6.10;99.90;;;;;;5040367;28;19948;-51
2021/12/12 10:31:18;;;;;;;;;;;6.20;99.90;;;;;;5051420;28;19929;-52
2021/12/12 10:33:48;;;;;;;;;;;6.20;99.90;;;;;;5051425;28;19975;-52
2021/12/12 10:36:16;;;;;;;;;;;6.10;99.90;;;;;;5032377;28;19979;-52
2021/12/12 10:38:43;;;;;;;;;;;6.10;99.90;;;;;;5039115;28;20291;-53
2021/12/12 10:41:16;;;;;;;;;;;6.10;99.90;;;;;;5047136;28;20212;-51
2021/12/12 10:43:44;;;;;;;;;;;6.20;99.90;;;;;;5045968;28;19993;-52
2021/12/12 10:46:13;;;;;;;;;;;6.20;99.90;;;;;;5049081;28;20050;-53
2021/12/12 10:48:44;;;;;;;;;;;6.30;99.90;;;;;;5051864;28;19991;-50
2021/12/12 10:51:15;;;;;;;;;;;6.00;99.90;;;;;;5049097;28;19958;-53
2021/12/12 10:53:45;;;;;;;;;;;5.80;99.90;;;;;;5053955;28;19986;-50
2021/12/12 10:56:17;;;;;;;;;;;5.80;99.90;;;;;;5053377;28;19925;-51
2021/12/12 10:58:46;;;;;;;;;;;5.70;99.90;;;;;;5055404;28;20456;-52
2021/12/12 11:01:15;;;;;;;;;;;5.60;99.90;;;;;;5055653;28;20435;-52
2021/12/12 11:03:45;;;;;;;;;;;5.60;99.90;;;;;;5055642;28;19924;-51
2021/12/12 11:06:16;;;;;;;;;;;5.70;99.90;;;;;;5054681;28;20015;-51
2021/12/12 11:08:46;;;;;;;;;;;5.60;99.90;;;;;;5055804;28;19967;-50
2021/12/12 11:11:14;;;;;;;;;;;5.70;99.90;;;;;;5055337;28;19928;-50
2021/12/12 11:13:42;;;;;;;;;;;5.80;99.90;;;;;;5054570;28;20334;-52
2021/12/12 11:16:11;;;;;;;;;;;5.90;99.90;;;;;;5050045;28;20276;-51
2021/12/12 11:18:40;;;;;;;;;;;6.00;99.90;;;;;;5035399;28;20341;-51
2021/12/12 11:21:11;;;;;;;;;;;5.80;99.90;;;;;;5044793;28;20444;-52
2021/12/12 11:23:44;;;;;;;;;;;5.90;99.90;;;;;;5055067;28;20390;-52
2021/12/12 11:26:12;;;;;;;;;;;5.80;99.90;;;;;;5055347;28;19978;-50
2021/12/12 11:28:41;;;;;;;;;;;5.70;99.90;;;;;;5054813;28;19928;-52
2021/12/12 11:31:11;;;;;;;;;;;5.70;99.90;;;;;;5054123;28;19964;-52
2021/12/12 11:33:38;;;;;;;;;;;5.80;99.90;;;;;;5054879;28;20379;-53
2021/12/12 11:36:08;;;;;;;;;;;5.90;99.90;;;;;;5055424;28;19978;-51
2021/12/12 11:38:39;;;;;;;;;;;5.80;99.90;;;;;;5050061;28;20401;-52
2021/12/12 11:41:10;;;;;;;;;;;5.80;99.90;;;;;;5054965;28;19971;-52
2021/12/12 11:43:40;;;;;;;;;;;6.00;99.90;;;;;;5054564;28;19971;-55
2021/12/12 11:46:12;;;;;;;;;;;6.10;99.90;;;;;;5046028;28;19981;-52
2021/12/12 11:48:46;;;;;;;;;;;6.00;99.90;;;;;;5035091;28;19960;-51
2021/12/12 11:51:15;;;;;;;;;;;6.00;99.90;;;;;;5052577;28;20382;-51
2021/12/12 11:53:44;;;;;;;;;;;6.00;99.90;;;;;;5052965;28;19971;-53
2021/12/12 11:56:15;;;;;;;;;;;5.60;99.90;;;;;;5054211;28;19924;-51
2021/12/12 11:58:45;;;;;;;;;;;5.80;99.90;;;;;;5046842;28;19925;-50
2021/12/12 12:01:18;;;;;;;;;;;5.90;99.90;;;;;;5038881;28;20366;-52
2021/12/12 12:03:57;;;;;;;;;;;5.70;99.90;;;;;;5053315;28;20465;-52
2021/12/12 12:06:28;;;;;;;;;;;5.70;99.90;;;;;;5053887;28;19932;-52
2021/12/12 12:09:02;;;;;;;;;;;5.90;99.90;;;;;;5054292;28;20283;-52
2021/12/12 12:11:39;;;;;;;;;;;5.80;99.90;;;;;;5042017;28;19999;-52
2021/12/12 12:14:08;;;;;;;;;;;5.70;99.90;;;;;;5053911;28;19925;-50
2021/12/12 12:16:41;;;;;;;;;;;5.70;99.90;;;;;;5053917;28;19929;-52
2021/12/12 12:19:11;;;;;;;;;;;5.70;99.90;;;;;;5051287;28;19933;-52
2021/12/12 12:21:40;;;;;;;;;;;5.70;99.90;;;;;;5045482;28;19924;-52
2021/12/12 12:24:13;;;;;;;;;;;5.70;99.90;;;;;;5052737;28;19970;-52
2021/12/12 12:26:52;;;;;;;;;;;5.70;99.90;;;;;;5049504;28;20008;-51
2021/12/12 12:29:52;;;;;;;;;;;5.80;99.90;;;;;;5045442;28;20374;-51
2021/12/12 12:32:36;;;;;;;;;;;6.00;99.90;;;;;;5040777;28;19932;-53
2021/12/12 12:35:21;;;;;;;;;;;6.10;99.90;;;;;;5053185;28;19928;-51
2021/12/12 12:38:06;;;;;;;;;;;6.30;99.90;;;;;;5016196;28;20381;-51
2021/12/12 12:40:57;;;;;;;;;;;6.20;99.90;;;;;;5036015;28;19968;-52
2021/12/12 12:43:42;;;;;;;;;;;6.00;99.90;;;;;;4977653;28;19926;-51
2021/12/12 12:46:27;;;;;;;;;;;6.20;99.90;;;;;;5041475;28;19932;-52
2021/12/12 12:49:13;;;;;;;;;;;6.30;99.90;;;;;;5052501;28;19924;-52
2021/12/12 12:51:46;;;;;;;;;;;6.10;99.90;;;;;;5053359;28;20444;-52
2021/12/12 12:54:17;;;;;;;;;;;6.10;99.90;;;;;;5053060;28;19925;-51
2021/12/12 12:57:10;;;;;;;;;;;6.10;99.90;;;;;;5053064;28;19925;-53
2021/12/12 12:59:50;;;;;;;;;;;6.00;99.90;;;;;;5004893;28;19924;-52
2021/12/12 13:02:19;;;;;;;;;;;6.10;99.90;;;;;;5052791;28;20035;-51
2021/12/12 13:05:01;;;;;;;;;;;6.00;99.90;;;;;;5047128;28;19978;-53
2021/12/12 13:07:32;;;;;;;;;;;6.10;99.90;;;;;;5052782;28;20291;-52
2021/12/12 13:10:01;;;;;;;;;;;6.20;99.90;;;;;;5052898;28;19925;-53
2021/12/12 13:12:45;;;;;;;;;;;6.20;99.90;;;;;;5052730;28;19924;-54
2021/12/12 13:15:24;;;;;;;;;;;6.30;99.90;;;;;;5038092;28;19929;-51
2021/12/12 13:18:01;;;;;;;;;;;6.30;99.90;;;;;;5048142;28;20275;-52
2021/12/12 13:20:33;;;;;;;;;;;6.30;99.90;;;;;;5047168;28;20011;-51
2021/12/12 13:23:15;;;;;;;;;;;5.90;99.90;;;;;;5052120;28;19987;-51
2021/12/12 13:25:44;;;;;;;;;;;5.80;99.90;;;;;;5052826;28;19925;-52
2021/12/12 13:28:18;;;;;;;;;;;5.80;99.90;;;;;;5052052;28;20062;-52
2021/12/12 13:30:48;;;;;;;;;;;5.60;99.90;;;;;;5052446;28;19968;-52
2021/12/12 13:33:19;;;;;;;;;;;5.50;99.90;;;;;;5051733;28;20036;-51
2021/12/12 13:36:04;;;;;;;;;;;5.40;99.90;;;;;;5052689;28;19925;-52
2021/12/12 13:38:40;;;;;;;;;;;5.50;99.90;;;;;;5051475;28;19994;-53
2021/12/12 13:41:09;;;;;;;;;;;5.60;99.90;;;;;;5051695;28;19964;-52
2021/12/12 13:43:40;;;;;;;;;;;5.70;99.90;;;;;;5045553;28;19924;-53
2021/12/12 13:46:10;;;;;;;;;;;5.70;99.90;;;;;;5051645;28;19929;-53
2021/12/12 13:48:44;;;;;;;;;;;5.80;99.90;;;;;;5052540;28;19925;-50
2021/12/12 13:51:16;;;;;;;;;;;6.00;99.90;;;;;;5051551;28;19933;-52
2021/12/12 13:53:49;;;;;;;;;;;5.90;99.90;;;;;;5051669;28;19978;-52
2021/12/12 13:56:19;;;;;;;;;;;5.90;99.90;;;;;;5051959;28;19986;-51
2021/12/12 13:58:50;;;;;;;;;;;5.90;99.90;;;;;;5052041;28;20278;-51
2021/12/12 14:01:20;;;;;;;;;;;5.90;99.90;;;;;;5051612;28;19925;-51
2021/12/12 14:03:50;;;;;;;;;;;6.00;99.90;;;;;;5050932;28;19939;-52
2021/12/12 14:06:18;;;;;;;;;;;5.90;99.90;;;;;;5045529;28;19979;-52
2021/12/12 14:08:47;;;;;;;;;;;5.80;99.90;;;;;;5051979;28;19925;-51
2021/12/12 14:11:21;;;;;;;;;;;5.80;99.90;;;;;;5048589;28;19929;-52
2021/12/12 14:13:50;;;;;;;;;;;5.90;99.90;;;;;;5052008;28;19932;-51
2021/12/12 14:16:19;;;;;;;;;;;5.90;99.90;;;;;;5051718;28;19925;-53
2021/12/12 14:18:48;;;;;;;;;;;5.90;99.90;;;;;;5033877;28;19925;-52
2021/12/12 14:21:15;;;;;;;;;;;5.80;99.90;;;;;;5049013;28;19924;-51
2021/12/12 14:23:42;;;;;;;;;;;5.80;99.90;;;;;;5051789;28;19932;-53
2021/12/12 14:26:13;;;;;;;;;;;5.80;99.90;;;;;;5045157;28;19929;-51
2021/12/12 14:28:41;;;;;;;;;;;5.70;99.90;;;;;;5045482;28;20374;-53
2021/12/12 14:31:09;;;;;;;;;;;5.60;99.90;;;;;;5051282;28;19929;-53
2021/12/12 14:33:42;;;;;;;;;;;5.70;99.90;;;;;;5051374;28;19995;-53
2021/12/12 14:36:12;;;;;;;;;;;5.70;99.90;;;;;;5052148;28;20003;-52
2021/12/12 14:38:39;;;;;;;;;;;5.70;99.90;;;;;;5051931;28;19932;-51
2021/12/12 14:41:06;;;;;;;;;;;5.60;99.90;;;;;;5042708;28;19937;-53
2021/12/12 14:43:36;;;;;;;;;;;5.30;99.90;;;;;;5040949;28;19928;-51
2021/12/12 14:46:06;;;;;;;;;;;5.30;99.90;;;;;;5051703;28;19928;-52
2021/12/12 14:48:34;;;;;;;;;;;5.30;99.90;;;;;;5051745;28;19925;-52
2021/12/12 14:51:04;;;;;;;;;;;5.20;99.90;;;;;;5051239;28;19925;-52
2021/12/12 14:53:34;;;;;;;;;;;5.20;99.90;;;;;;5046495;28;20382;-52
2021/12/12 14:56:04;;;;;;;;;;;5.30;99.90;;;;;;5045604;28;19925;-52
2021/12/12 14:58:37;;;;;;;;;;;5.40;99.90;;;;;;5044472;28;19925;-51
2021/12/12 15:01:07;;;;;;;;;;;5.40;99.90;;;;;;5050573;28;19925;-52
2021/12/12 15:03:36;;;;;;;;;;;5.50;99.90;;;;;;5049852;28;19933;-51
2021/12/12 15:06:04;;;;;;;;;;;5.40;99.90;;;;;;5051117;28;19975;-51
2021/12/12 15:08:37;;;;;;;;;;;5.30;99.90;;;;;;5051541;28;19924;-52
2021/12/12 15:11:07;;;;;;;;;;;5.20;99.90;;;;;;5048681;28;19987;-52